sensor_id;sensor_type;location;lat;lon;timestamp;P1;durP1;ratioP1;P2;durP2;ratioP2
70825;SDS011;58446;41.490;22.098;2024-01-10T00:02:01;21.30;;;11.83;;
70825;SDS011;58446;41.490;22.098;2024-01-10T00:04:28;21.13;;;12.65;;
70825;SDS011;58446;41.490;22.098;2024-01-10T00:06:53;21.57;;;11.53;;
70825;SDS011;58446;41.490;22.098;2024-01-10T00:09:19;20.75;;;11.43;;
70825;SDS011;58446;41.490;22.098;2024-01-10T00:11:46;18.42;;;10.35;;
70825;SDS011;58446;41.490;22.098;2024-01-10T00:14:12;18.43;;;11.00;;
70825;SDS011;58446;41.490;22.098;2024-01-10T00:16:38;21.10;;;12.32;;
70825;SDS011;58446;41.490;22.098;2024-01-10T00:19:04;20.60;;;12.55;;
70825;SDS011;58446;41.490;22.098;2024-01-10T00:21:30;20.50;;;11.67;;
70825;SDS011;58446;41.490;22.098;2024-01-10T00:23:56;17.83;;;11.80;;
70825;SDS011;58446;41.490;22.098;2024-01-10T00:26:22;18.02;;;9.85;;
70825;SDS011;58446;41.490;22.098;2024-01-10T00:28:48;18.35;;;10.15;;
70825;SDS011;58446;41.490;22.098;2024-01-10T00:31:13;19.77;;;11.30;;
70825;SDS011;58446;41.490;22.098;2024-01-10T00:33:39;31.85;;;15.65;;
70825;SDS011;58446;41.490;22.098;2024-01-10T00:36:05;42.97;;;17.93;;
70825;SDS011;58446;41.490;22.098;2024-01-10T00:38:32;33.35;;;15.75;;
70825;SDS011;58446;41.490;22.098;2024-01-10T00:40:58;26.02;;;12.82;;
70825;SDS011;58446;41.490;22.098;2024-01-10T00:43:24;19.05;;;11.57;;
70825;SDS011;58446;41.490;22.098;2024-01-10T00:45:49;20.00;;;10.83;;
70825;SDS011;58446;41.490;22.098;2024-01-10T00:48:15;18.25;;;10.73;;
70825;SDS011;58446;41.490;22.098;2024-01-10T00:50:42;18.17;;;10.52;;
70825;SDS011;58446;41.490;22.098;2024-01-10T00:53:09;15.43;;;9.53;;
70825;SDS011;58446;41.490;22.098;2024-01-10T00:55:35;16.33;;;9.95;;
70825;SDS011;58446;41.490;22.098;2024-01-10T00:58:01;15.43;;;10.00;;
70825;SDS011;58446;41.490;22.098;2024-01-10T01:00:26;16.00;;;9.77;;
70825;SDS011;58446;41.490;22.098;2024-01-10T01:02:52;15.70;;;9.80;;
70825;SDS011;58446;41.490;22.098;2024-01-10T01:05:18;16.38;;;9.57;;
70825;SDS011;58446;41.490;22.098;2024-01-10T01:07:44;14.10;;;8.50;;
70825;SDS011;58446;41.490;22.098;2024-01-10T01:10:09;13.70;;;8.77;;
70825;SDS011;58446;41.490;22.098;2024-01-10T01:12:35;13.50;;;8.75;;
70825;SDS011;58446;41.490;22.098;2024-01-10T01:15:01;12.10;;;8.97;;
70825;SDS011;58446;41.490;22.098;2024-01-10T01:17:26;13.68;;;8.32;;
70825;SDS011;58446;41.490;22.098;2024-01-10T01:19:52;14.33;;;9.20;;
70825;SDS011;58446;41.490;22.098;2024-01-10T01:22:18;13.00;;;8.85;;
70825;SDS011;58446;41.490;22.098;2024-01-10T01:24:43;13.70;;;9.37;;
70825;SDS011;58446;41.490;22.098;2024-01-10T01:27:09;12.50;;;8.43;;
70825;SDS011;58446;41.490;22.098;2024-01-10T01:29:35;13.05;;;8.43;;
70825;SDS011;58446;41.490;22.098;2024-01-10T01:32:01;12.80;;;7.97;;
70825;SDS011;58446;41.490;22.098;2024-01-10T01:34:26;14.80;;;8.93;;
70825;SDS011;58446;41.490;22.098;2024-01-10T01:36:52;16.42;;;9.43;;
70825;SDS011;58446;41.490;22.098;2024-01-10T01:39:18;11.60;;;8.23;;
70825;SDS011;58446;41.490;22.098;2024-01-10T01:41:44;13.32;;;8.30;;
70825;SDS011;58446;41.490;22.098;2024-01-10T01:44:10;11.70;;;7.50;;
70825;SDS011;58446;41.490;22.098;2024-01-10T01:46:35;13.20;;;8.33;;
70825;SDS011;58446;41.490;22.098;2024-01-10T01:49:02;15.95;;;9.50;;
70825;SDS011;58446;41.490;22.098;2024-01-10T01:51:28;15.60;;;8.98;;
70825;SDS011;58446;41.490;22.098;2024-01-10T01:53:56;14.13;;;9.13;;
70825;SDS011;58446;41.490;22.098;2024-01-10T01:56:21;14.07;;;8.47;;
70825;SDS011;58446;41.490;22.098;2024-01-10T01:58:49;11.73;;;8.00;;
70825;SDS011;58446;41.490;22.098;2024-01-10T02:01:16;12.73;;;8.80;;
70825;SDS011;58446;41.490;22.098;2024-01-10T02:03:46;13.40;;;8.65;;
70825;SDS011;58446;41.490;22.098;2024-01-10T02:06:12;11.93;;;8.10;;
70825;SDS011;58446;41.490;22.098;2024-01-10T02:08:38;12.83;;;8.40;;
70825;SDS011;58446;41.490;22.098;2024-01-10T02:11:03;12.27;;;8.13;;
70825;SDS011;58446;41.490;22.098;2024-01-10T02:13:30;11.23;;;7.55;;
70825;SDS011;58446;41.490;22.098;2024-01-10T02:15:57;10.88;;;7.43;;
70825;SDS011;58446;41.490;22.098;2024-01-10T02:18:24;9.73;;;7.13;;
70825;SDS011;58446;41.490;22.098;2024-01-10T02:20:49;11.90;;;8.50;;
70825;SDS011;58446;41.490;22.098;2024-01-10T02:23:17;10.65;;;6.85;;
70825;SDS011;58446;41.490;22.098;2024-01-10T02:25:42;12.07;;;7.95;;
70825;SDS011;58446;41.490;22.098;2024-01-10T02:28:09;13.00;;;9.18;;
70825;SDS011;58446;41.490;22.098;2024-01-10T02:30:35;11.83;;;7.47;;
70825;SDS011;58446;41.490;22.098;2024-01-10T02:33:00;12.82;;;8.13;;
70825;SDS011;58446;41.490;22.098;2024-01-10T02:35:26;10.63;;;8.20;;
70825;SDS011;58446;41.490;22.098;2024-01-10T02:37:52;12.45;;;7.95;;
70825;SDS011;58446;41.490;22.098;2024-01-10T02:40:19;12.55;;;9.73;;
70825;SDS011;58446;41.490;22.098;2024-01-10T02:42:45;12.32;;;7.70;;
70825;SDS011;58446;41.490;22.098;2024-01-10T02:45:11;12.10;;;8.43;;
70825;SDS011;58446;41.490;22.098;2024-01-10T02:47:37;11.30;;;8.13;;
70825;SDS011;58446;41.490;22.098;2024-01-10T02:50:03;12.03;;;7.47;;
70825;SDS011;58446;41.490;22.098;2024-01-10T02:52:30;13.43;;;8.27;;
70825;SDS011;58446;41.490;22.098;2024-01-10T02:54:55;12.57;;;7.93;;
70825;SDS011;58446;41.490;22.098;2024-01-10T02:57:21;11.37;;;8.47;;
70825;SDS011;58446;41.490;22.098;2024-01-10T02:59:46;11.30;;;7.90;;
70825;SDS011;58446;41.490;22.098;2024-01-10T03:02:12;12.45;;;7.47;;
70825;SDS011;58446;41.490;22.098;2024-01-10T03:04:38;11.97;;;8.53;;
70825;SDS011;58446;41.490;22.098;2024-01-10T03:07:03;12.50;;;7.65;;
70825;SDS011;58446;41.490;22.098;2024-01-10T03:09:29;12.60;;;8.20;;
70825;SDS011;58446;41.490;22.098;2024-01-10T03:11:54;10.53;;;7.40;;
70825;SDS011;58446;41.490;22.098;2024-01-10T03:14:20;12.00;;;8.20;;
70825;SDS011;58446;41.490;22.098;2024-01-10T03:16:47;13.00;;;8.52;;
70825;SDS011;58446;41.490;22.098;2024-01-10T03:19:13;11.80;;;8.27;;
70825;SDS011;58446;41.490;22.098;2024-01-10T03:21:39;10.70;;;7.43;;
70825;SDS011;58446;41.490;22.098;2024-01-10T03:24:04;11.82;;;7.93;;
70825;SDS011;58446;41.490;22.098;2024-01-10T03:26:30;11.30;;;6.93;;
70825;SDS011;58446;41.490;22.098;2024-01-10T03:28:56;11.10;;;8.18;;
70825;SDS011;58446;41.490;22.098;2024-01-10T03:31:22;9.95;;;7.32;;
70825;SDS011;58446;41.490;22.098;2024-01-10T03:33:48;11.20;;;7.43;;
70825;SDS011;58446;41.490;22.098;2024-01-10T03:36:17;11.13;;;7.85;;
70825;SDS011;58446;41.490;22.098;2024-01-10T03:38:43;11.32;;;7.43;;
70825;SDS011;58446;41.490;22.098;2024-01-10T03:41:13;13.52;;;7.15;;
70825;SDS011;58446;41.490;22.098;2024-01-10T03:43:39;12.10;;;7.47;;
70825;SDS011;58446;41.490;22.098;2024-01-10T03:46:05;14.88;;;7.10;;
70825;SDS011;58446;41.490;22.098;2024-01-10T03:48:31;12.48;;;7.68;;
70825;SDS011;58446;41.490;22.098;2024-01-10T03:50:57;17.17;;;8.23;;
70825;SDS011;58446;41.490;22.098;2024-01-10T03:53:22;16.90;;;8.73;;
70825;SDS011;58446;41.490;22.098;2024-01-10T03:55:48;15.45;;;8.75;;
70825;SDS011;58446;41.490;22.098;2024-01-10T03:58:13;20.23;;;10.17;;
70825;SDS011;58446;41.490;22.098;2024-01-10T04:00:39;16.55;;;8.57;;
70825;SDS011;58446;41.490;22.098;2024-01-10T04:03:05;28.67;;;14.17;;
70825;SDS011;58446;41.490;22.098;2024-01-10T04:05:30;27.50;;;13.70;;
70825;SDS011;58446;41.490;22.098;2024-01-10T04:07:56;15.47;;;9.80;;
70825;SDS011;58446;41.490;22.098;2024-01-10T04:10:22;18.77;;;10.20;;
70825;SDS011;58446;41.490;22.098;2024-01-10T04:12:48;25.57;;;13.43;;
70825;SDS011;58446;41.490;22.098;2024-01-10T04:15:14;26.63;;;13.38;;
70825;SDS011;58446;41.490;22.098;2024-01-10T04:17:40;25.10;;;12.65;;
70825;SDS011;58446;41.490;22.098;2024-01-10T04:20:06;14.57;;;9.20;;
70825;SDS011;58446;41.490;22.098;2024-01-10T04:22:32;24.85;;;12.82;;
70825;SDS011;58446;41.490;22.098;2024-01-10T04:24:59;16.63;;;11.68;;
70825;SDS011;58446;41.490;22.098;2024-01-10T04:27:26;13.47;;;8.50;;
70825;SDS011;58446;41.490;22.098;2024-01-10T04:29:53;13.77;;;9.27;;
70825;SDS011;58446;41.490;22.098;2024-01-10T04:32:19;14.90;;;10.23;;
70825;SDS011;58446;41.490;22.098;2024-01-10T04:34:45;15.10;;;9.75;;
70825;SDS011;58446;41.490;22.098;2024-01-10T04:37:10;14.03;;;8.63;;
70825;SDS011;58446;41.490;22.098;2024-01-10T04:39:36;15.88;;;8.85;;
70825;SDS011;58446;41.490;22.098;2024-01-10T04:42:05;14.77;;;9.05;;
70825;SDS011;58446;41.490;22.098;2024-01-10T04:44:31;12.70;;;7.97;;
70825;SDS011;58446;41.490;22.098;2024-01-10T04:46:57;13.48;;;8.82;;
70825;SDS011;58446;41.490;22.098;2024-01-10T04:49:22;15.00;;;10.05;;
70825;SDS011;58446;41.490;22.098;2024-01-10T04:51:49;13.30;;;9.47;;
70825;SDS011;58446;41.490;22.098;2024-01-10T04:54:16;12.40;;;8.32;;
70825;SDS011;58446;41.490;22.098;2024-01-10T04:56:41;14.57;;;8.87;;
70825;SDS011;58446;41.490;22.098;2024-01-10T04:59:07;13.30;;;8.32;;
70825;SDS011;58446;41.490;22.098;2024-01-10T05:01:33;11.50;;;7.88;;
70825;SDS011;58446;41.490;22.098;2024-01-10T05:03:59;11.97;;;8.93;;
70825;SDS011;58446;41.490;22.098;2024-01-10T05:06:25;17.17;;;9.23;;
70825;SDS011;58446;41.490;22.098;2024-01-10T05:08:50;18.53;;;9.80;;
70825;SDS011;58446;41.490;22.098;2024-01-10T05:11:16;24.48;;;11.32;;
70825;SDS011;58446;41.490;22.098;2024-01-10T05:13:42;29.52;;;12.38;;
70825;SDS011;58446;41.490;22.098;2024-01-10T05:16:08;17.90;;;10.73;;
70825;SDS011;58446;41.490;22.098;2024-01-10T05:18:34;27.88;;;11.73;;
70825;SDS011;58446;41.490;22.098;2024-01-10T05:21:00;34.30;;;14.17;;
70825;SDS011;58446;41.490;22.098;2024-01-10T05:23:26;28.70;;;14.57;;
70825;SDS011;58446;41.490;22.098;2024-01-10T05:25:53;46.65;;;18.55;;
70825;SDS011;58446;41.490;22.098;2024-01-10T05:28:19;65.13;;;22.50;;
70825;SDS011;58446;41.490;22.098;2024-01-10T05:30:44;94.03;;;29.17;;
70825;SDS011;58446;41.490;22.098;2024-01-10T05:33:10;77.13;;;26.00;;
70825;SDS011;58446;41.490;22.098;2024-01-10T05:35:36;67.87;;;24.97;;
70825;SDS011;58446;41.490;22.098;2024-01-10T05:38:03;41.78;;;18.63;;
70825;SDS011;58446;41.490;22.098;2024-01-10T05:40:29;67.23;;;27.90;;
70825;SDS011;58446;41.490;22.098;2024-01-10T05:42:55;74.07;;;26.20;;
70825;SDS011;58446;41.490;22.098;2024-01-10T05:45:21;66.03;;;26.45;;
70825;SDS011;58446;41.490;22.098;2024-01-10T05:47:47;56.30;;;24.50;;
70825;SDS011;58446;41.490;22.098;2024-01-10T05:50:13;63.53;;;27.98;;
70825;SDS011;58446;41.490;22.098;2024-01-10T05:52:39;58.80;;;28.70;;
70825;SDS011;58446;41.490;22.098;2024-01-10T05:55:05;60.03;;;29.05;;
70825;SDS011;58446;41.490;22.098;2024-01-10T05:57:34;63.87;;;28.70;;
70825;SDS011;58446;41.490;22.098;2024-01-10T06:00:00;49.15;;;25.98;;
70825;SDS011;58446;41.490;22.098;2024-01-10T06:02:26;50.33;;;26.75;;
70825;SDS011;58446;41.490;22.098;2024-01-10T06:04:52;56.97;;;27.88;;
70825;SDS011;58446;41.490;22.098;2024-01-10T06:07:18;37.53;;;21.50;;
70825;SDS011;58446;41.490;22.098;2024-01-10T06:09:46;45.72;;;24.23;;
70825;SDS011;58446;41.490;22.098;2024-01-10T06:12:12;41.83;;;20.70;;
70825;SDS011;58446;41.490;22.098;2024-01-10T06:14:38;41.95;;;21.08;;
70825;SDS011;58446;41.490;22.098;2024-01-10T06:17:04;31.53;;;17.93;;
70825;SDS011;58446;41.490;22.098;2024-01-10T06:19:31;35.63;;;19.20;;
70825;SDS011;58446;41.490;22.098;2024-01-10T06:21:57;33.83;;;19.83;;
70825;SDS011;58446;41.490;22.098;2024-01-10T06:24:23;35.22;;;19.90;;
70825;SDS011;58446;41.490;22.098;2024-01-10T06:26:49;33.70;;;19.63;;
70825;SDS011;58446;41.490;22.098;2024-01-10T06:29:15;30.60;;;16.38;;
70825;SDS011;58446;41.490;22.098;2024-01-10T06:31:41;34.65;;;18.15;;
70825;SDS011;58446;41.490;22.098;2024-01-10T06:34:07;32.40;;;19.13;;
70825;SDS011;58446;41.490;22.098;2024-01-10T06:36:33;36.22;;;19.55;;
70825;SDS011;58446;41.490;22.098;2024-01-10T06:38:59;28.40;;;16.77;;
70825;SDS011;58446;41.490;22.098;2024-01-10T06:41:25;29.53;;;16.13;;
70825;SDS011;58446;41.490;22.098;2024-01-10T06:43:51;33.53;;;18.38;;
70825;SDS011;58446;41.490;22.098;2024-01-10T06:46:17;32.50;;;18.38;;
70825;SDS011;58446;41.490;22.098;2024-01-10T06:48:43;31.37;;;19.20;;
70825;SDS011;58446;41.490;22.098;2024-01-10T06:51:12;25.20;;;16.02;;
70825;SDS011;58446;41.490;22.098;2024-01-10T06:53:38;27.52;;;16.95;;
70825;SDS011;58446;41.490;22.098;2024-01-10T06:56:04;27.85;;;17.48;;
70825;SDS011;58446;41.490;22.098;2024-01-10T06:58:30;26.93;;;17.80;;
70825;SDS011;58446;41.490;22.098;2024-01-10T07:00:56;31.38;;;18.63;;
70825;SDS011;58446;41.490;22.098;2024-01-10T07:03:22;25.30;;;16.08;;
70825;SDS011;58446;41.490;22.098;2024-01-10T07:05:47;34.00;;;21.17;;
70825;SDS011;58446;41.490;22.098;2024-01-10T07:08:14;31.93;;;20.87;;
70825;SDS011;58446;41.490;22.098;2024-01-10T07:10:39;51.47;;;30.45;;
70825;SDS011;58446;41.490;22.098;2024-01-10T07:13:05;30.75;;;19.95;;
70825;SDS011;58446;41.490;22.098;2024-01-10T07:15:32;28.07;;;17.67;;
70825;SDS011;58446;41.490;22.098;2024-01-10T07:17:57;32.42;;;21.15;;
70825;SDS011;58446;41.490;22.098;2024-01-10T07:20:23;61.17;;;32.90;;
70825;SDS011;58446;41.490;22.098;2024-01-10T07:22:49;43.13;;;25.67;;
70825;SDS011;58446;41.490;22.098;2024-01-10T07:25:16;33.85;;;21.73;;
70825;SDS011;58446;41.490;22.098;2024-01-10T07:27:43;41.10;;;23.70;;
70825;SDS011;58446;41.490;22.098;2024-01-10T07:30:09;35.90;;;21.77;;
70825;SDS011;58446;41.490;22.098;2024-01-10T07:32:41;29.42;;;18.77;;
70825;SDS011;58446;41.490;22.098;2024-01-10T07:35:13;29.27;;;18.60;;
70825;SDS011;58446;41.490;22.098;2024-01-10T07:37:39;27.95;;;19.70;;
70825;SDS011;58446;41.490;22.098;2024-01-10T07:40:07;26.97;;;17.27;;
70825;SDS011;58446;41.490;22.098;2024-01-10T07:42:34;22.38;;;15.05;;
70825;SDS011;58446;41.490;22.098;2024-01-10T07:45:00;36.92;;;20.48;;
70825;SDS011;58446;41.490;22.098;2024-01-10T07:47:33;30.13;;;17.38;;
70825;SDS011;58446;41.490;22.098;2024-01-10T07:50:06;26.95;;;16.23;;
70825;SDS011;58446;41.490;22.098;2024-01-10T07:52:33;31.03;;;18.87;;
70825;SDS011;58446;41.490;22.098;2024-01-10T07:54:59;24.65;;;16.90;;
70825;SDS011;58446;41.490;22.098;2024-01-10T07:57:25;34.20;;;22.05;;
70825;SDS011;58446;41.490;22.098;2024-01-10T07:59:52;30.58;;;19.25;;
70825;SDS011;58446;41.490;22.098;2024-01-10T08:02:18;33.28;;;23.35;;
70825;SDS011;58446;41.490;22.098;2024-01-10T08:04:43;30.10;;;17.87;;
70825;SDS011;58446;41.490;22.098;2024-01-10T08:07:09;25.27;;;17.57;;
70825;SDS011;58446;41.490;22.098;2024-01-10T08:09:35;27.17;;;16.48;;
70825;SDS011;58446;41.490;22.098;2024-01-10T08:12:02;22.85;;;13.55;;
70825;SDS011;58446;41.490;22.098;2024-01-10T08:14:30;23.10;;;15.53;;
70825;SDS011;58446;41.490;22.098;2024-01-10T08:16:56;19.23;;;12.40;;
70825;SDS011;58446;41.490;22.098;2024-01-10T08:19:29;16.08;;;10.75;;
70825;SDS011;58446;41.490;22.098;2024-01-10T08:21:55;16.00;;;11.73;;
70825;SDS011;58446;41.490;22.098;2024-01-10T08:24:21;22.48;;;12.80;;
70825;SDS011;58446;41.490;22.098;2024-01-10T08:26:48;20.58;;;14.25;;
70825;SDS011;58446;41.490;22.098;2024-01-10T08:29:20;18.33;;;12.38;;
70825;SDS011;58446;41.490;22.098;2024-01-10T08:31:47;18.50;;;12.02;;
70825;SDS011;58446;41.490;22.098;2024-01-10T08:34:12;18.33;;;10.37;;
70825;SDS011;58446;41.490;22.098;2024-01-10T08:36:38;16.58;;;11.13;;
70825;SDS011;58446;41.490;22.098;2024-01-10T08:39:04;17.23;;;12.47;;
70825;SDS011;58446;41.490;22.098;2024-01-10T08:41:30;20.23;;;12.75;;
70825;SDS011;58446;41.490;22.098;2024-01-10T08:43:56;14.90;;;10.13;;
70825;SDS011;58446;41.490;22.098;2024-01-10T08:46:22;16.83;;;11.00;;
70825;SDS011;58446;41.490;22.098;2024-01-10T08:48:49;16.83;;;11.17;;
70825;SDS011;58446;41.490;22.098;2024-01-10T08:51:16;12.82;;;8.80;;
70825;SDS011;58446;41.490;22.098;2024-01-10T08:53:45;13.23;;;7.07;;
70825;SDS011;58446;41.490;22.098;2024-01-10T08:56:11;10.65;;;6.65;;
70825;SDS011;58446;41.490;22.098;2024-01-10T08:58:37;11.90;;;7.27;;
70825;SDS011;58446;41.490;22.098;2024-01-10T09:01:03;14.55;;;8.20;;
70825;SDS011;58446;41.490;22.098;2024-01-10T09:03:33;17.23;;;9.77;;
70825;SDS011;58446;41.490;22.098;2024-01-10T09:05:59;13.43;;;7.63;;
70825;SDS011;58446;41.490;22.098;2024-01-10T09:08:25;13.60;;;8.68;;
70825;SDS011;58446;41.490;22.098;2024-01-10T09:10:50;10.63;;;5.90;;
70825;SDS011;58446;41.490;22.098;2024-01-10T09:13:16;10.18;;;6.78;;
70825;SDS011;58446;41.490;22.098;2024-01-10T09:15:42;15.75;;;10.32;;
70825;SDS011;58446;41.490;22.098;2024-01-10T09:18:08;26.53;;;15.87;;
70825;SDS011;58446;41.490;22.098;2024-01-10T09:20:34;19.17;;;10.93;;
70825;SDS011;58446;41.490;22.098;2024-01-10T09:23:02;24.70;;;14.05;;
70825;SDS011;58446;41.490;22.098;2024-01-10T09:25:28;34.05;;;19.38;;
70825;SDS011;58446;41.490;22.098;2024-01-10T09:27:53;24.90;;;14.97;;
70825;SDS011;58446;41.490;22.098;2024-01-10T09:30:20;14.00;;;10.07;;
70825;SDS011;58446;41.490;22.098;2024-01-10T09:32:46;11.75;;;7.68;;
70825;SDS011;58446;41.490;22.098;2024-01-10T09:35:12;14.20;;;6.97;;
70825;SDS011;58446;41.490;22.098;2024-01-10T09:37:38;16.52;;;10.25;;
70825;SDS011;58446;41.490;22.098;2024-01-10T09:40:04;21.73;;;13.45;;
70825;SDS011;58446;41.490;22.098;2024-01-10T09:42:34;28.30;;;15.93;;
70825;SDS011;58446;41.490;22.098;2024-01-10T09:45:03;16.33;;;11.40;;
70825;SDS011;58446;41.490;22.098;2024-01-10T09:47:30;17.45;;;10.48;;
70825;SDS011;58446;41.490;22.098;2024-01-10T09:49:57;16.48;;;9.65;;
70825;SDS011;58446;41.490;22.098;2024-01-10T09:52:27;15.05;;;9.30;;
70825;SDS011;58446;41.490;22.098;2024-01-10T09:54:55;13.77;;;8.70;;
70825;SDS011;58446;41.490;22.098;2024-01-10T09:57:23;14.27;;;9.67;;
70825;SDS011;58446;41.490;22.098;2024-01-10T09:59:50;12.43;;;8.90;;
70825;SDS011;58446;41.490;22.098;2024-01-10T10:02:17;10.70;;;7.28;;
70825;SDS011;58446;41.490;22.098;2024-01-10T10:04:58;12.68;;;8.48;;
70825;SDS011;58446;41.490;22.098;2024-01-10T10:07:29;18.98;;;12.10;;
70825;SDS011;58446;41.490;22.098;2024-01-10T10:09:55;13.30;;;7.80;;
70825;SDS011;58446;41.490;22.098;2024-01-10T10:12:40;9.48;;;5.85;;
70825;SDS011;58446;41.490;22.098;2024-01-10T10:15:14;11.77;;;6.78;;
70825;SDS011;58446;41.490;22.098;2024-01-10T10:17:44;12.23;;;6.90;;
70825;SDS011;58446;41.490;22.098;2024-01-10T10:20:14;15.37;;;8.73;;
70825;SDS011;58446;41.490;22.098;2024-01-10T10:25:34;24.15;;;12.75;;
70825;SDS011;58446;41.490;22.098;2024-01-10T10:28:10;26.40;;;15.05;;
70825;SDS011;58446;41.490;22.098;2024-01-10T10:30:36;22.52;;;12.80;;
70825;SDS011;58446;41.490;22.098;2024-01-10T10:33:02;22.90;;;13.73;;
70825;SDS011;58446;41.490;22.098;2024-01-10T10:35:28;26.17;;;15.18;;
70825;SDS011;58446;41.490;22.098;2024-01-10T10:37:54;28.63;;;17.70;;
70825;SDS011;58446;41.490;22.098;2024-01-10T10:40:20;26.67;;;14.70;;
70825;SDS011;58446;41.490;22.098;2024-01-10T10:42:56;25.27;;;15.90;;
70825;SDS011;58446;41.490;22.098;2024-01-10T10:45:22;18.42;;;10.77;;
70825;SDS011;58446;41.490;22.098;2024-01-10T10:47:58;23.73;;;14.25;;
70825;SDS011;58446;41.490;22.098;2024-01-10T10:50:29;23.08;;;14.65;;
70825;SDS011;58446;41.490;22.098;2024-01-10T10:52:59;18.70;;;10.80;;
70825;SDS011;58446;41.490;22.098;2024-01-10T10:55:28;17.25;;;10.90;;
70825;SDS011;58446;41.490;22.098;2024-01-10T10:57:55;18.38;;;10.02;;
70825;SDS011;58446;41.490;22.098;2024-01-10T11:00:22;13.25;;;8.80;;
70825;SDS011;58446;41.490;22.098;2024-01-10T11:02:55;12.30;;;7.55;;
70825;SDS011;58446;41.490;22.098;2024-01-10T11:05:22;12.37;;;7.70;;
70825;SDS011;58446;41.490;22.098;2024-01-10T11:07:49;16.48;;;10.77;;
70825;SDS011;58446;41.490;22.098;2024-01-10T11:10:19;16.60;;;11.70;;
70825;SDS011;58446;41.490;22.098;2024-01-10T11:18:18;18.00;;;10.03;;
70825;SDS011;58446;41.490;22.098;2024-01-10T11:21:12;26.15;;;12.18;;
70825;SDS011;58446;41.490;22.098;2024-01-10T11:24:13;27.63;;;15.02;;
70825;SDS011;58446;41.490;22.098;2024-01-10T11:26:39;23.77;;;13.32;;
70825;SDS011;58446;41.490;22.098;2024-01-10T11:29:05;22.67;;;13.03;;
70825;SDS011;58446;41.490;22.098;2024-01-10T11:31:32;37.40;;;19.08;;
70825;SDS011;58446;41.490;22.098;2024-01-10T11:33:58;24.95;;;12.23;;
70825;SDS011;58446;41.490;22.098;2024-01-10T11:36:26;19.75;;;12.60;;
70825;SDS011;58446;41.490;22.098;2024-01-10T11:38:56;21.90;;;14.43;;
70825;SDS011;58446;41.490;22.098;2024-01-10T11:41:31;24.30;;;14.48;;
70825;SDS011;58446;41.490;22.098;2024-01-10T11:46:42;22.23;;;12.93;;
70825;SDS011;58446;41.490;22.098;2024-01-10T11:49:11;24.42;;;13.02;;
70825;SDS011;58446;41.490;22.098;2024-01-10T11:51:45;29.77;;;15.57;;
70825;SDS011;58446;41.490;22.098;2024-01-10T11:59:51;26.33;;;15.43;;
70825;SDS011;58446;41.490;22.098;2024-01-10T12:02:21;27.38;;;16.08;;
70825;SDS011;58446;41.490;22.098;2024-01-10T12:04:51;23.37;;;14.67;;
70825;SDS011;58446;41.490;22.098;2024-01-10T12:07:17;24.08;;;12.38;;
70825;SDS011;58446;41.490;22.098;2024-01-10T12:09:44;18.80;;;11.80;;
70825;SDS011;58446;41.490;22.098;2024-01-10T12:12:11;19.63;;;10.10;;
70825;SDS011;58446;41.490;22.098;2024-01-10T12:14:37;18.67;;;9.77;;
70825;SDS011;58446;41.490;22.098;2024-01-10T12:17:04;20.23;;;11.27;;
70825;SDS011;58446;41.490;22.098;2024-01-10T12:19:31;19.98;;;11.45;;
70825;SDS011;58446;41.490;22.098;2024-01-10T12:21:57;17.50;;;9.93;;
70825;SDS011;58446;41.490;22.098;2024-01-10T12:24:22;15.30;;;9.40;;
70825;SDS011;58446;41.490;22.098;2024-01-10T12:26:49;15.85;;;10.40;;
70825;SDS011;58446;41.490;22.098;2024-01-10T12:29:18;19.03;;;12.37;;
70825;SDS011;58446;41.490;22.098;2024-01-10T12:31:48;18.63;;;12.20;;
70825;SDS011;58446;41.490;22.098;2024-01-10T12:34:14;17.13;;;10.38;;
70825;SDS011;58446;41.490;22.098;2024-01-10T12:36:40;17.60;;;11.18;;
70825;SDS011;58446;41.490;22.098;2024-01-10T12:39:07;18.55;;;11.68;;
70825;SDS011;58446;41.490;22.098;2024-01-10T12:41:33;15.17;;;9.67;;
70825;SDS011;58446;41.490;22.098;2024-01-10T12:44:00;18.05;;;12.05;;
70825;SDS011;58446;41.490;22.098;2024-01-10T12:46:30;15.43;;;9.55;;
70825;SDS011;58446;41.490;22.098;2024-01-10T12:49:00;15.15;;;9.63;;
70825;SDS011;58446;41.490;22.098;2024-01-10T12:51:28;15.10;;;9.67;;
70825;SDS011;58446;41.490;22.098;2024-01-10T12:53:55;16.77;;;10.40;;
70825;SDS011;58446;41.490;22.098;2024-01-10T12:56:21;15.60;;;9.30;;
70825;SDS011;58446;41.490;22.098;2024-01-10T12:58:47;16.17;;;9.47;;
70825;SDS011;58446;41.490;22.098;2024-01-10T13:01:13;12.65;;;8.50;;
70825;SDS011;58446;41.490;22.098;2024-01-10T13:03:39;16.88;;;9.60;;
70825;SDS011;58446;41.490;22.098;2024-01-10T13:06:05;17.67;;;9.90;;
70825;SDS011;58446;41.490;22.098;2024-01-10T13:08:31;28.23;;;17.77;;
70825;SDS011;58446;41.490;22.098;2024-01-10T13:10:57;40.67;;;26.05;;
70825;SDS011;58446;41.490;22.098;2024-01-10T13:13:24;25.63;;;14.68;;
70825;SDS011;58446;41.490;22.098;2024-01-10T13:15:51;19.13;;;11.82;;
70825;SDS011;58446;41.490;22.098;2024-01-10T13:18:17;21.07;;;13.20;;
70825;SDS011;58446;41.490;22.098;2024-01-10T13:20:44;14.68;;;9.65;;
70825;SDS011;58446;41.490;22.098;2024-01-10T13:23:11;33.45;;;17.23;;
70825;SDS011;58446;41.490;22.098;2024-01-10T13:25:37;18.17;;;11.60;;
70825;SDS011;58446;41.490;22.098;2024-01-10T13:28:05;14.47;;;9.73;;
70825;SDS011;58446;41.490;22.098;2024-01-10T13:30:31;20.27;;;14.80;;
70825;SDS011;58446;41.490;22.098;2024-01-10T13:32:57;21.10;;;15.23;;
70825;SDS011;58446;41.490;22.098;2024-01-10T13:35:24;17.40;;;12.55;;
70825;SDS011;58446;41.490;22.098;2024-01-10T13:37:50;15.93;;;9.47;;
70825;SDS011;58446;41.490;22.098;2024-01-10T13:40:17;15.80;;;9.95;;
70825;SDS011;58446;41.490;22.098;2024-01-10T13:42:49;18.73;;;11.27;;
70825;SDS011;58446;41.490;22.098;2024-01-10T13:45:15;14.63;;;9.70;;
70825;SDS011;58446;41.490;22.098;2024-01-10T13:47:43;17.05;;;10.52;;
70825;SDS011;58446;41.490;22.098;2024-01-10T13:50:10;34.47;;;15.13;;
70825;SDS011;58446;41.490;22.098;2024-01-10T13:52:38;26.13;;;15.50;;
70825;SDS011;58446;41.490;22.098;2024-01-10T13:55:04;28.58;;;21.05;;
70825;SDS011;58446;41.490;22.098;2024-01-10T13:57:31;27.73;;;15.67;;
70825;SDS011;58446;41.490;22.098;2024-01-10T14:00:00;34.80;;;21.90;;
70825;SDS011;58446;41.490;22.098;2024-01-10T14:02:30;34.80;;;20.77;;
70825;SDS011;58446;41.490;22.098;2024-01-10T14:04:56;35.45;;;20.85;;
70825;SDS011;58446;41.490;22.098;2024-01-10T14:07:24;43.13;;;27.33;;
70825;SDS011;58446;41.490;22.098;2024-01-10T14:09:51;34.33;;;19.63;;
70825;SDS011;58446;41.490;22.098;2024-01-10T14:12:19;37.25;;;20.67;;
70825;SDS011;58446;41.490;22.098;2024-01-10T14:14:45;36.53;;;20.57;;
70825;SDS011;58446;41.490;22.098;2024-01-10T14:17:11;40.13;;;21.77;;
70825;SDS011;58446;41.490;22.098;2024-01-10T14:19:37;39.30;;;22.25;;
70825;SDS011;58446;41.490;22.098;2024-01-10T14:22:02;47.47;;;23.37;;
70825;SDS011;58446;41.490;22.098;2024-01-10T14:24:29;59.95;;;29.02;;
70825;SDS011;58446;41.490;22.098;2024-01-10T14:26:55;50.67;;;24.25;;
70825;SDS011;58446;41.490;22.098;2024-01-10T14:29:21;52.57;;;25.00;;